Rialto, California
Current Conditions -  °F | °C
As of 12:47 PM on Tuesday 27 Jan 2015 (Local Time) from KSBD Reporting Station
Scattered Clouds Scattered Clouds  
Wind Chill: 66°   Ceiling: Unl
Heat Index: 66°   Visibility: 10mi
Dew Point: 46°   Wind: 0mph
Humidity: 49%   Direction: NA
Pressure: 30.15"   Gusts: NA
Location:  34.1°N, 117.37°W
Report Text: KSBD 272047Z 00000KT 10SM SCT050 SCT250 19/08 A3015
Loading
Personal Weather Stations






























Interactive Weather Map New forecast layout! Learn more

10-Day Weather Forecast

Advertisements
Track Severe Weather on mobile